Time;durP1;ratioP1;P1;durP2;ratioP2;P2;SDS_P1;SDS_P2;PMS_P1;PMS_P2;Temp;Humidity;BMP_temperature;BMP_pressure;BME280_temperature;BME280_humidity;BME280_pressure;Samples;Min_cycle;Max_cycle;Signal;HPM_P1;HPM_P2
2023/02/26 00:00:59;;;;;;;1.50;1.40;;;8.60;99.90;;;;;;5005350;28;20212;-79
2023/02/26 00:03:26;;;;;;;4.13;1.80;;;8.60;99.90;;;;;;5007205;28;20216;-81
2023/02/26 00:05:54;;;;;;;1.90;1.40;;;8.60;99.90;;;;;;5007845;28;20224;-79
2023/02/26 00:08:21;;;;;;;1.35;1.35;;;8.50;99.90;;;;;;5006222;28;20231;-77
2023/02/26 00:10:48;;;;;;;1.30;1.30;;;8.50;99.90;;;;;;5004611;28;20310;-78
2023/02/26 00:13:15;;;;;;;3.88;1.65;;;8.50;99.90;;;;;;5004350;28;20292;-77
2023/02/26 00:15:43;;;;;;;1.60;1.50;;;8.40;99.90;;;;;;5003590;28;20285;-78
2023/02/26 00:18:16;;;;;;;2.35;1.63;;;8.40;99.80;;;;;;5005473;28;20733;-77
2023/02/26 00:20:44;;;;;;;1.30;1.30;;;8.40;99.90;;;;;;5004321;28;20197;-80
2023/02/26 00:23:14;;;;;;;1.52;1.50;;;8.30;99.60;;;;;;5004510;28;20507;-79
2023/02/26 00:25:41;;;;;;;1.63;1.45;;;8.30;99.60;;;;;;5025477;28;21361;-78
2023/02/26 00:28:09;;;;;;;1.80;1.70;;;8.30;99.70;;;;;;5006674;28;20228;-78
2023/02/26 00:30:37;;;;;;;1.50;1.40;;;8.30;99.80;;;;;;5005621;28;20215;-78
2023/02/26 00:33:05;;;;;;;2.00;1.60;;;8.30;99.80;;;;;;5004034;28;20219;-77
2023/02/26 00:35:33;;;;;;;1.80;1.70;;;8.20;99.50;;;;;;5002184;28;20197;-78
2023/02/26 00:38:05;;;;;;;1.50;1.40;;;8.20;98.80;;;;;;5006052;28;20192;-78
2023/02/26 00:40:41;;;;;;;1.58;1.58;;;8.20;98.70;;;;;;5006094;28;20775;-80
2023/02/26 00:43:13;;;;;;;1.65;1.58;;;8.20;98.50;;;;;;5004142;28;20316;-78
2023/02/26 00:45:47;;;;;;;1.90;1.80;;;8.20;98.70;;;;;;5004084;28;20599;-78
2023/02/26 00:48:35;;;;;;;1.70;1.60;;;8.20;99.20;;;;;;5004445;28;20211;-78
2023/02/26 00:51:10;;;;;;;1.63;1.63;;;8.10;98.80;;;;;;5003349;28;20325;-77
2023/02/26 00:53:46;;;;;;;2.38;1.60;;;8.10;98.60;;;;;;5001115;28;20247;-78
2023/02/26 00:56:15;;;;;;;1.98;1.48;;;8.10;98.40;;;;;;5004492;28;20236;-77
2023/02/26 00:58:42;;;;;;;1.10;1.10;;;8.10;97.90;;;;;;5003815;28;20236;-78
2023/02/26 01:01:09;;;;;;;1.20;1.20;;;8.10;98.30;;;;;;5004824;28;20219;-79
2023/02/26 01:03:37;;;;;;;1.73;1.63;;;8.10;98.10;;;;;;5000803;28;20220;-78
2023/02/26 01:06:10;;;;;;;1.80;1.70;;;8.10;97.90;;;;;;5000775;28;20196;-79
2023/02/26 01:08:45;;;;;;;1.80;1.70;;;8.00;97.60;;;;;;5005019;28;20231;-78
2023/02/26 01:11:13;;;;;;;1.30;1.30;;;8.00;97.80;;;;;;5005824;28;20255;-79
2023/02/26 01:13:41;;;;;;;1.95;1.85;;;7.90;97.60;;;;;;5000683;28;20255;-78
2023/02/26 01:16:12;;;;;;;1.75;1.67;;;7.90;97.60;;;;;;5003839;28;20232;-78
2023/02/26 01:18:44;;;;;;;1.52;1.42;;;7.90;97.50;;;;;;5002450;28;20250;-80
2023/02/26 01:21:18;;;;;;;1.58;1.48;;;7.90;97.30;;;;;;5011223;28;20649;-78
2023/02/26 01:23:49;;;;;;;1.63;1.63;;;7.90;97.00;;;;;;4999096;28;20239;-78
2023/02/26 01:26:20;;;;;;;1.60;1.60;;;7.80;97.90;;;;;;5002792;28;20204;-80
2023/02/26 01:28:49;;;;;;;1.73;1.65;;;7.80;97.60;;;;;;5004952;28;20204;-78
2023/02/26 01:31:30;;;;;;;1.65;1.55;;;7.80;97.00;;;;;;5003725;28;20729;-78
2023/02/26 01:34:02;;;;;;;1.63;1.52;;;7.80;97.10;;;;;;4999148;28;20643;-79
2023/02/26 01:36:34;;;;;;;1.98;1.88;;;7.80;96.50;;;;;;5002139;28;20220;-79
2023/02/26 01:39:06;;;;;;;1.98;1.52;;;7.80;97.10;;;;;;5010549;28;20200;-79
2023/02/26 01:41:36;;;;;;;1.38;1.25;;;7.80;96.90;;;;;;5021291;28;20196;-78
2023/02/26 01:44:14;;;;;;;1.90;1.80;;;7.70;96.60;;;;;;5017389;28;20200;-77
2023/02/26 01:47:10;;;;;;;1.58;1.58;;;7.70;96.50;;;;;;5002071;28;20546;-78
2023/02/26 01:49:38;;;;;;;1.50;1.50;;;7.70;96.10;;;;;;5000782;28;20629;-78
2023/02/26 01:52:07;;;;;;;1.55;1.55;;;7.70;96.20;;;;;;5000603;28;20308;-79
2023/02/26 01:54:37;;;;;;;1.88;1.77;;;7.70;96.00;;;;;;5004487;28;20238;-77
2023/02/26 01:57:07;;;;;;;1.67;1.58;;;7.70;95.50;;;;;;5004393;28;20228;-78
2023/02/26 01:59:38;;;;;;;2.00;1.90;;;7.70;96.10;;;;;;5009574;28;20173;-79
2023/02/26 02:02:09;;;;;;;1.92;1.83;;;7.60;96.40;;;;;;5018620;28;20211;-78
2023/02/26 02:04:37;;;;;;;2.25;1.60;;;7.60;96.30;;;;;;5007279;28;20200;-79
2023/02/26 02:07:05;;;;;;;2.08;1.70;;;7.60;95.70;;;;;;5006379;28;20200;-80
2023/02/26 02:09:33;;;;;;;1.67;1.67;;;7.60;95.70;;;;;;5001951;28;20224;-79
2023/02/26 02:12:29;;;;;;;1.73;1.63;;;7.60;95.90;;;;;;5003946;28;20228;-78
2023/02/26 02:15:10;;;;;;;1.92;1.83;;;7.60;95.50;;;;;;4996501;28;20208;-77
2023/02/26 02:17:47;;;;;;;1.80;1.70;;;7.50;95.30;;;;;;5008012;28;20228;-77
2023/02/26 02:20:29;;;;;;;1.88;1.80;;;7.50;95.40;;;;;;5012539;28;20261;-77
2023/02/26 02:23:09;;;;;;;2.22;2.13;;;7.50;95.20;;;;;;5005334;28;20254;-77
2023/02/26 02:26:14;;;;;;;2.03;1.92;;;7.50;95.30;;;;;;5007594;28;20551;-80
2023/02/26 02:29:03;;;;;;;1.70;1.60;;;7.50;95.00;;;;;;5010000;28;20670;-78
2023/02/26 02:31:35;;;;;;;1.83;1.83;;;7.50;94.90;;;;;;5004928;28;20259;-77
2023/02/26 02:34:09;;;;;;;1.95;1.80;;;7.50;95.00;;;;;;5004463;28;20200;-78
2023/02/26 02:36:41;;;;;;;1.90;1.85;;;7.50;95.20;;;;;;5009424;28;20200;-78
2023/02/26 02:39:12;;;;;;;1.60;1.60;;;7.50;94.80;;;;;;5007701;28;20228;-78
2023/02/26 02:41:45;;;;;;;1.60;1.50;;;7.40;94.50;;;;;;5005189;28;20238;-77
2023/02/26 02:44:18;;;;;;;1.60;1.60;;;7.40;94.70;;;;;;5008433;28;20224;-78
2023/02/26 02:46:51;;;;;;;1.67;1.63;;;7.40;94.20;;;;;;5007819;28;20764;-79
2023/02/26 02:49:24;;;;;;;2.20;2.00;;;7.40;93.90;;;;;;5007996;28;20235;-78
2023/02/26 02:51:54;;;;;;;1.77;1.77;;;7.40;94.20;;;;;;5008838;28;20220;-76
2023/02/26 02:54:24;;;;;;;1.88;1.77;;;7.40;94.60;;;;;;5003278;28;20243;-79
2023/02/26 02:56:56;;;;;;;1.77;1.67;;;7.40;94.30;;;;;;5003536;28;20223;-79
2023/02/26 02:59:28;;;;;;;2.40;2.17;;;7.30;94.40;;;;;;5012071;28;21019;-82
2023/02/26 03:02:04;;;;;;;1.40;1.40;;;7.30;94.40;;;;;;5009926;28;20240;-77
2023/02/26 03:04:31;;;;;;;1.88;1.77;;;7.30;94.60;;;;;;5010654;28;20230;-78
2023/02/26 03:06:58;;;;;;;1.92;1.83;;;7.30;94.10;;;;;;5009558;28;20224;-79
2023/02/26 03:09:25;;;;;;;1.55;1.55;;;7.20;93.90;;;;;;5010505;28;20255;-77
2023/02/26 03:11:52;;;;;;;1.95;1.85;;;7.20;93.50;;;;;;5013837;28;20224;-78
2023/02/26 03:14:19;;;;;;;1.90;1.80;;;7.20;94.10;;;;;;5008400;28;20738;-77
2023/02/26 03:17:02;;;;;;;2.10;2.00;;;7.20;93.20;;;;;;5015027;28;20200;-77
2023/02/26 03:19:34;;;;;;;2.05;1.95;;;7.10;92.90;;;;;;5005536;28;20234;-78
2023/02/26 03:22:07;;;;;;;1.90;1.80;;;7.10;92.70;;;;;;5011776;28;20225;-80
2023/02/26 03:24:38;;;;;;;2.10;2.00;;;7.10;93.20;;;;;;5008280;28;20696;-77
2023/02/26 03:27:13;;;;;;;1.90;1.80;;;7.10;92.90;;;;;;5007815;28;20196;-82
2023/02/26 03:29:47;;;;;;;3.80;1.90;;;7.00;93.00;;;;;;5009268;28;20254;-78
2023/02/26 03:32:21;;;;;;;2.03;1.95;;;7.00;92.80;;;;;;5010790;28;20260;-80
2023/02/26 03:34:52;;;;;;;2.08;1.98;;;7.00;93.30;;;;;;5013329;28;20224;-81
2023/02/26 03:37:25;;;;;;;2.08;1.98;;;7.00;92.80;;;;;;5029219;28;20221;-77
2023/02/26 03:39:54;;;;;;;2.17;2.08;;;7.00;92.30;;;;;;5006072;28;20220;-79
2023/02/26 03:42:26;;;;;;;2.13;2.03;;;7.00;92.40;;;;;;5007947;28;20251;-78
2023/02/26 03:44:57;;;;;;;2.20;2.10;;;6.90;92.50;;;;;;5015092;28;20207;-78
2023/02/26 03:47:25;;;;;;;2.35;2.25;;;6.90;93.00;;;;;;5010335;28;20204;-78
2023/02/26 03:49:57;;;;;;;2.25;2.15;;;6.90;92.60;;;;;;5010966;28;20236;-78
2023/02/26 03:52:29;;;;;;;2.10;2.00;;;7.00;92.60;;;;;;5010468;28;20712;-80
2023/02/26 03:55:01;;;;;;;2.30;2.20;;;7.00;92.30;;;;;;5014528;28;20223;-77
2023/02/26 03:57:28;;;;;;;2.42;2.22;;;7.00;92.40;;;;;;5008333;28;20193;-79
2023/02/26 03:59:56;;;;;;;2.40;2.30;;;7.00;91.70;;;;;;5013159;28;20224;-77
2023/02/26 04:02:30;;;;;;;2.60;2.50;;;7.00;92.10;;;;;;5009352;28;20255;-79
2023/02/26 04:05:01;;;;;;;2.10;2.00;;;7.00;92.10;;;;;;5009847;28;20207;-78
2023/02/26 04:07:29;;;;;;;2.30;2.13;;;7.00;91.70;;;;;;5014436;28;20262;-79
2023/02/26 04:09:56;;;;;;;2.33;2.22;;;6.90;91.60;;;;;;5011578;28;20759;-79
2023/02/26 04:12:25;;;;;;;2.78;2.38;;;6.80;91.50;;;;;;5025577;28;20224;-82
2023/02/26 04:14:52;;;;;;;2.38;2.28;;;6.80;91.50;;;;;;5020543;28;20199;-80
2023/02/26 04:17:19;;;;;;;2.55;2.42;;;6.80;90.90;;;;;;5013789;28;20218;-78
2023/02/26 04:19:47;;;;;;;2.60;2.40;;;6.80;90.90;;;;;;5015111;28;20201;-80
2023/02/26 04:22:14;;;;;;;2.42;2.20;;;6.70;90.80;;;;;;5011578;28;20251;-79
2023/02/26 04:24:41;;;;;;;2.38;2.28;;;6.70;90.90;;;;;;5008071;28;20197;-82
2023/02/26 04:27:08;;;;;;;2.20;2.10;;;6.70;90.80;;;;;;5011733;28;20263;-78
2023/02/26 04:29:36;;;;;;;2.25;2.15;;;6.70;90.90;;;;;;5015565;28;20201;-82
2023/02/26 04:32:03;;;;;;;2.80;2.63;;;6.60;90.40;;;;;;5011960;28;20223;-79
2023/02/26 04:34:30;;;;;;;2.05;1.95;;;6.60;90.50;;;;;;5011534;28;20196;-81
2023/02/26 04:36:58;;;;;;;2.20;2.10;;;6.60;90.30;;;;;;5015523;28;21852;-79
2023/02/26 04:39:25;;;;;;;2.70;2.00;;;6.50;90.40;;;;;;5014810;28;20204;-76
2023/02/26 04:41:52;;;;;;;2.28;2.17;;;6.50;90.40;;;;;;5015151;28;20594;-78
2023/02/26 04:44:19;;;;;;;2.55;2.35;;;6.50;90.40;;;;;;5016711;28;20197;-81
2023/02/26 04:46:46;;;;;;;2.15;2.05;;;6.50;90.90;;;;;;5015045;28;20212;-79
2023/02/26 04:49:13;;;;;;;2.40;2.30;;;6.50;90.60;;;;;;5016281;28;20254;-78
2023/02/26 04:51:40;;;;;;;3.55;2.38;;;6.40;90.40;;;;;;5018735;28;20224;-78
2023/02/26 04:54:08;;;;;;;2.50;2.40;;;6.40;90.60;;;;;;5005486;28;20250;-80
2023/02/26 04:56:35;;;;;;;2.50;2.40;;;6.40;90.40;;;;;;5013855;28;20211;-79
2023/02/26 04:59:02;;;;;;;2.35;2.25;;;6.30;90.60;;;;;;5013689;28;20200;-82
2023/02/26 05:01:29;;;;;;;4.43;2.22;;;6.30;90.80;;;;;;5015504;28;20831;-80
2023/02/26 05:03:56;;;;;;;2.45;2.35;;;6.30;90.50;;;;;;5018309;28;20262;-79
2023/02/26 05:06:23;;;;;;;2.45;2.35;;;6.30;90.90;;;;;;5014829;28;20204;-78
2023/02/26 05:08:50;;;;;;;8.15;3.20;;;6.20;90.80;;;;;;5017349;28;20204;-80
2023/02/26 05:11:18;;;;;;;5.78;2.92;;;6.20;90.50;;;;;;5025843;28;20205;-78
2023/02/26 05:13:46;;;;;;;2.83;2.67;;;6.20;90.80;;;;;;5018767;28;20208;-78
2023/02/26 05:16:13;;;;;;;2.42;2.33;;;6.10;90.80;;;;;;5010384;28;20188;-78
2023/02/26 05:18:40;;;;;;;5.85;2.80;;;6.10;91.00;;;;;;5010490;28;20667;-79
2023/02/26 05:21:07;;;;;;;2.50;2.40;;;6.10;91.20;;;;;;5008788;28;20243;-78
2023/02/26 05:23:34;;;;;;;2.40;2.30;;;6.10;91.00;;;;;;5006026;28;20244;-77
2023/02/26 05:26:01;;;;;;;2.78;2.53;;;6.00;91.20;;;;;;5006848;28;20227;-78
2023/02/26 05:28:30;;;;;;;2.47;2.38;;;5.90;91.20;;;;;;5008539;28;20625;-76
2023/02/26 05:30:57;;;;;;;2.92;2.50;;;5.90;91.00;;;;;;5007379;28;20740;-77
2023/02/26 05:33:24;;;;;;;2.65;2.25;;;5.80;90.90;;;;;;5009470;28;20244;-77
2023/02/26 05:35:51;;;;;;;2.58;2.47;;;5.80;91.00;;;;;;5009479;28;20291;-78
2023/02/26 05:38:19;;;;;;;2.45;2.35;;;5.70;91.00;;;;;;5011677;28;20200;-77
2023/02/26 05:40:46;;;;;;;3.00;2.22;;;5.70;91.10;;;;;;5009722;28;20231;-79
2023/02/26 05:43:13;;;;;;;2.33;2.20;;;5.70;91.40;;;;;;5010534;28;20228;-78
2023/02/26 05:45:41;;;;;;;2.42;2.20;;;5.70;91.10;;;;;;5004330;28;20207;-79
2023/02/26 05:48:09;;;;;;;2.53;2.33;;;5.70;90.50;;;;;;5008346;28;20224;-77
2023/02/26 05:50:36;;;;;;;4.25;2.20;;;5.70;90.50;;;;;;5009095;28;20192;-77
2023/02/26 05:53:03;;;;;;;2.13;2.00;;;5.60;90.30;;;;;;5007203;28;20248;-83
2023/02/26 05:55:30;;;;;;;3.20;2.17;;;5.60;90.50;;;;;;5008606;28;20803;-78
2023/02/26 05:57:57;;;;;;;2.83;2.20;;;5.50;90.40;;;;;;5010035;28;20196;-80
2023/02/26 06:00:24;;;;;;;2.85;2.42;;;5.50;90.20;;;;;;5010187;28;20626;-77
2023/02/26 06:02:53;;;;;;;2.10;2.00;;;5.50;90.40;;;;;;5011019;28;20243;-79
2023/02/26 06:05:20;;;;;;;2.35;2.25;;;5.50;90.50;;;;;;5010099;28;20230;-81
2023/02/26 06:07:47;;;;;;;1.92;1.83;;;5.40;90.50;;;;;;5011144;28;20208;-79
2023/02/26 06:10:14;;;;;;;2.30;2.00;;;5.40;90.30;;;;;;5011506;28;20316;-81
2023/02/26 06:12:41;;;;;;;2.47;2.30;;;5.30;90.40;;;;;;5018336;28;20221;-78
2023/02/26 06:15:09;;;;;;;2.15;2.05;;;5.30;90.50;;;;;;5011901;28;20251;-80
2023/02/26 06:17:37;;;;;;;2.47;2.38;;;5.30;90.40;;;;;;5009575;28;20227;-80
2023/02/26 06:20:05;;;;;;;2.40;2.30;;;5.30;90.40;;;;;;5011019;28;20629;-77
2023/02/26 06:22:33;;;;;;;2.03;1.92;;;5.30;90.40;;;;;;5010766;28;20449;-75
2023/02/26 06:25:00;;;;;;;2.50;2.38;;;5.30;90.30;;;;;;5012994;28;20258;-77
2023/02/26 06:27:27;;;;;;;2.08;1.98;;;5.30;90.30;;;;;;5010655;28;20287;-79
2023/02/26 06:29:54;;;;;;;2.50;2.40;;;5.30;90.10;;;;;;5011206;28;20242;-78
2023/02/26 06:32:21;;;;;;;2.28;2.17;;;5.40;90.10;;;;;;5004699;28;20714;-78
2023/02/26 06:34:48;;;;;;;2.45;2.25;;;5.30;89.70;;;;;;5009625;28;20232;-78
2023/02/26 06:37:16;;;;;;;2.38;2.28;;;5.30;90.30;;;;;;5020402;28;20682;-81
2023/02/26 06:39:43;;;;;;;3.22;2.50;;;5.30;89.50;;;;;;5008674;28;20197;-81
2023/02/26 06:42:10;;;;;;;2.45;2.30;;;5.30;88.30;;;;;;5017989;28;20215;-81
2023/02/26 06:44:37;;;;;;;1.92;1.88;;;5.40;89.20;;;;;;5019348;28;20205;-82
2023/02/26 06:47:04;;;;;;;2.67;2.58;;;5.30;89.80;;;;;;5028136;28;20185;-79
2023/02/26 06:49:31;;;;;;;2.47;2.38;;;5.30;89.00;;;;;;5012485;28;20211;-80
2023/02/26 06:51:58;;;;;;;2.20;2.10;;;5.30;88.40;;;;;;5009649;28;20213;-79
2023/02/26 06:54:26;;;;;;;2.28;2.17;;;5.30;88.70;;;;;;5007459;28;20251;-79
2023/02/26 06:56:56;;;;;;;2.50;2.30;;;5.20;88.70;;;;;;5011831;28;20551;-79
2023/02/26 06:59:23;;;;;;;2.40;2.30;;;5.20;88.80;;;;;;5013767;28;20287;-79
2023/02/26 07:01:50;;;;;;;2.33;2.22;;;5.20;88.80;;;;;;5005222;28;20254;-79
2023/02/26 07:04:17;;;;;;;2.58;2.47;;;5.10;88.30;;;;;;5005397;28;22120;-77
2023/02/26 07:06:44;;;;;;;2.45;2.25;;;5.20;88.30;;;;;;5003239;28;20233;-80
2023/02/26 07:09:11;;;;;;;2.20;2.10;;;5.10;88.30;;;;;;5017963;28;20193;-81
2023/02/26 07:11:39;;;;;;;2.22;2.13;;;5.10;88.10;;;;;;5005587;28;20231;-82
2023/02/26 07:14:06;;;;;;;2.55;2.05;;;5.10;87.80;;;;;;5009285;28;20313;-82
2023/02/26 07:16:33;;;;;;;2.55;2.33;;;5.10;87.50;;;;;;5004894;28;20248;-79
2023/02/26 07:19:00;;;;;;;8.23;2.95;;;5.00;87.20;;;;;;5007770;28;20231;-82
2023/02/26 07:21:27;;;;;;;2.60;2.50;;;5.00;86.40;;;;;;5004611;28;20224;-82
2023/02/26 07:23:54;;;;;;;8.63;2.70;;;5.00;86.70;;;;;;4991797;28;20220;-82
2023/02/26 07:26:22;;;;;;;2.17;2.08;;;5.00;87.10;;;;;;4988467;28;20224;-81
2023/02/26 07:28:50;;;;;;;2.15;2.05;;;4.90;86.40;;;;;;4989435;28;20208;-83
2023/02/26 07:31:17;;;;;;;2.20;2.10;;;4.90;86.80;;;;;;4992285;28;20224;-82
2023/02/26 07:33:44;;;;;;;1.55;1.55;;;4.90;86.50;;;;;;4995464;28;20270;-81
2023/02/26 07:36:11;;;;;;;2.17;2.08;;;4.90;86.30;;;;;;4994063;28;20205;-80
2023/02/26 07:38:37;;;;;;;2.47;2.38;;;4.90;86.00;;;;;;4990848;28;20233;-82
2023/02/26 07:41:05;;;;;;;2.30;2.20;;;4.80;85.70;;;;;;4992980;28;20193;-79
2023/02/26 07:43:32;;;;;;;4.85;2.97;;;4.80;84.90;;;;;;4993216;28;20236;-80
2023/02/26 07:46:00;;;;;;;2.47;2.28;;;4.90;84.90;;;;;;4998190;28;20201;-83
2023/02/26 07:48:28;;;;;;;2.38;2.28;;;4.90;84.70;;;;;;4994496;28;20189;-82
2023/02/26 07:50:55;;;;;;;2.17;2.08;;;4.90;84.70;;;;;;4994952;28;20220;-79
2023/02/26 07:53:22;;;;;;;2.33;2.20;;;4.90;85.30;;;;;;4995796;28;20235;-81
2023/02/26 07:55:50;;;;;;;2.30;2.20;;;5.00;84.80;;;;;;4996021;28;20221;-80
2023/02/26 07:58:17;;;;;;;2.15;2.05;;;5.10;84.90;;;;;;4991575;28;20225;-80
2023/02/26 08:00:44;;;;;;;2.30;2.15;;;5.40;83.80;;;;;;4990766;28;20213;-80
2023/02/26 08:03:14;;;;;;;4.38;2.25;;;5.80;83.60;;;;;;4991870;28;20214;-80
2023/02/26 08:05:41;;;;;;;2.40;2.20;;;5.90;81.80;;;;;;4991657;28;20208;-83
2023/02/26 08:08:08;;;;;;;4.68;2.25;;;5.90;82.50;;;;;;5003175;28;20227;-80
2023/02/26 08:10:35;;;;;;;2.47;2.38;;;5.90;81.70;;;;;;4996657;28;20485;-82
2023/02/26 08:13:02;;;;;;;3.15;2.47;;;5.80;81.20;;;;;;4992478;28;20217;-80
2023/02/26 08:15:29;;;;;;;2.10;2.00;;;5.70;80.10;;;;;;5006992;28;20177;-78
2023/02/26 08:17:56;;;;;;;2.63;2.42;;;5.70;81.50;;;;;;4994724;28;20235;-79
2023/02/26 08:23:05;;;;;;;2.35;2.25;;;5.70;80.70;;;;;;4981145;28;20220;-68
2023/02/26 08:25:32;;;;;;;2.50;2.22;;;5.80;80.50;;;;;;4984546;28;20317;-69
2023/02/26 08:28:00;;;;;;;4.95;2.33;;;5.90;79.80;;;;;;4986013;28;20285;-68
2023/02/26 08:30:27;;;;;;;2.40;2.30;;;6.00;79.20;;;;;;4985719;28;20212;-68
2023/02/26 08:32:54;;;;;;;2.20;2.10;;;6.10;79.80;;;;;;4993521;28;20215;-68
2023/02/26 08:35:22;;;;;;;2.00;1.90;;;6.10;78.00;;;;;;4988955;28;20228;-68
2023/02/26 08:37:49;;;;;;;4.63;2.13;;;6.10;78.60;;;;;;4991827;28;20706;-69
2023/02/26 08:40:17;;;;;;;2.80;2.70;;;6.10;77.80;;;;;;4995257;28;20709;-69
2023/02/26 08:42:44;;;;;;;2.40;2.30;;;6.20;76.90;;;;;;4988856;28;20237;-69
2023/02/26 08:45:11;;;;;;;2.25;2.15;;;6.20;75.90;;;;;;4993106;28;20224;-69
2023/02/26 08:47:40;;;;;;;2.30;2.20;;;6.30;75.90;;;;;;4996147;28;20229;-69
2023/02/26 08:50:08;;;;;;;2.30;2.20;;;6.30;75.50;;;;;;4996832;28;20256;-69
2023/02/26 08:52:35;;;;;;;2.38;2.28;;;6.50;77.10;;;;;;4992999;28;20257;-69
2023/02/26 08:55:02;;;;;;;2.40;2.30;;;6.60;75.90;;;;;;4988072;28;20228;-69
2023/02/26 08:57:30;;;;;;;2.50;2.40;;;6.70;77.00;;;;;;4990822;28;20247;-69
2023/02/26 08:59:57;;;;;;;2.78;2.67;;;6.80;75.00;;;;;;4991731;28;20686;-68
2023/02/26 09:02:23;;;;;;;3.92;3.65;;;6.80;74.80;;;;;;4985909;28;20336;-69
2023/02/26 09:04:50;;;;;;;2.65;2.45;;;6.90;75.80;;;;;;4997530;28;20224;-70
2023/02/26 09:07:17;;;;;;;2.30;2.20;;;7.10;75.40;;;;;;4993419;28;20235;-69
2023/02/26 09:09:44;;;;;;;2.42;2.15;;;7.30;75.80;;;;;;4997811;28;20224;-69
2023/02/26 09:12:11;;;;;;;2.47;2.38;;;7.30;76.20;;;;;;4998982;28;20640;-73
2023/02/26 09:14:39;;;;;;;2.70;2.50;;;7.20;75.20;;;;;;4991795;28;20253;-69
2023/02/26 09:17:06;;;;;;;3.13;2.33;;;7.10;75.00;;;;;;4980174;28;20954;-69
2023/02/26 09:19:33;;;;;;;4.22;2.78;;;7.20;75.20;;;;;;4986566;28;20283;-70
2023/02/26 09:22:00;;;;;;;2.47;2.38;;;7.20;74.50;;;;;;4984484;28;20248;-68
2023/02/26 09:24:27;;;;;;;2.40;2.30;;;7.30;74.70;;;;;;4978878;28;20369;-68
2023/02/26 09:26:54;;;;;;;5.70;2.60;;;7.30;74.60;;;;;;4984089;28;20228;-68
2023/02/26 09:29:21;;;;;;;1.90;1.80;;;7.30;73.30;;;;;;4986980;28;20891;-68
2023/02/26 09:31:49;;;;;;;1.73;1.73;;;7.20;73.90;;;;;;4982326;28;20228;-68
2023/02/26 09:34:16;;;;;;;2.20;2.10;;;7.20;73.40;;;;;;4980557;28;20296;-68
2023/02/26 09:36:43;;;;;;;1.80;1.70;;;7.30;73.10;;;;;;4984260;28;20284;-69
2023/02/26 09:39:10;;;;;;;2.22;2.08;;;7.40;74.50;;;;;;4979968;28;20288;-69
2023/02/26 09:41:41;;;;;;;2.15;2.05;;;7.50;74.10;;;;;;4983833;28;20656;-68
2023/02/26 09:44:15;;;;;;;2.08;1.98;;;7.50;73.70;;;;;;4984482;28;20312;-71
2023/02/26 09:46:52;;;;;;;2.10;2.00;;;7.40;73.10;;;;;;4980861;28;20269;-69
2023/02/26 09:49:32;;;;;;;1.98;1.88;;;7.50;73.50;;;;;;4983303;28;20662;-68
2023/02/26 09:52:04;;;;;;;2.13;1.83;;;7.50;72.60;;;;;;4982722;28;20316;-70
2023/02/26 09:54:39;;;;;;;2.53;2.33;;;7.50;73.00;;;;;;4980404;28;20300;-72
2023/02/26 09:57:11;;;;;;;6.30;2.28;;;7.50;73.00;;;;;;4981174;28;20794;-71
2023/02/26 09:59:38;;;;;;;3.25;2.20;;;7.60;71.90;;;;;;4983831;28;20236;-71
2023/02/26 10:02:16;;;;;;;19.20;15.63;;;7.80;73.00;;;;;;4981368;28;20695;-72
2023/02/26 10:04:51;;;;;;;12.93;10.73;;;8.20;73.80;;;;;;4981428;28;20301;-71
2023/02/26 10:07:30;;;;;;;4.18;3.88;;;8.30;73.60;;;;;;4983926;28;20291;-69
2023/02/26 10:10:14;;;;;;;2.15;2.05;;;8.10;70.50;;;;;;4980845;28;20196;-70
2023/02/26 10:12:44;;;;;;;2.20;2.10;;;7.90;72.80;;;;;;4979056;28;20295;-70
2023/02/26 10:15:17;;;;;;;2.30;2.20;;;7.80;73.10;;;;;;4979450;28;20311;-71
2023/02/26 10:17:58;;;;;;;2.35;2.25;;;7.70;72.60;;;;;;4980509;28;20197;-70
2023/02/26 10:20:29;;;;;;;2.13;2.03;;;7.60;72.40;;;;;;4978010;28;20209;-70
2023/02/26 10:23:02;;;;;;;1.77;1.75;;;7.60;72.00;;;;;;4980104;28;20299;-70
2023/02/26 10:25:33;;;;;;;2.20;2.10;;;7.50;70.90;;;;;;4981386;28;20204;-71
2023/02/26 10:28:08;;;;;;;1.70;1.70;;;7.30;68.70;;;;;;4978764;28;20277;-71
2023/02/26 10:30:39;;;;;;;2.40;2.30;;;7.20;70.20;;;;;;4981079;28;20280;-70
2023/02/26 10:33:17;;;;;;;2.30;2.20;;;7.20;70.30;;;;;;4980312;28;20280;-70
2023/02/26 10:35:51;;;;;;;2.00;1.90;;;7.10;71.40;;;;;;4980597;28;20742;-70
2023/02/26 10:38:24;;;;;;;1.85;1.85;;;7.20;72.10;;;;;;4986427;28;20215;-69
2023/02/26 10:40:58;;;;;;;2.13;2.03;;;7.10;71.20;;;;;;4982539;28;20968;-70
2023/02/26 10:43:30;;;;;;;2.20;2.10;;;7.10;72.30;;;;;;4984023;28;20192;-69
2023/02/26 10:46:16;;;;;;;2.42;1.85;;;7.10;72.00;;;;;;4983904;28;20288;-70
2023/02/26 10:49:23;;;;;;;2.13;2.03;;;7.10;71.40;;;;;;4982435;28;20208;-70
2023/02/26 10:51:51;;;;;;;2.70;2.60;;;7.00;70.30;;;;;;4981993;28;20972;-70
2023/02/26 10:54:22;;;;;;;2.40;2.30;;;7.00;71.90;;;;;;4982146;28;20225;-70
2023/02/26 10:56:49;;;;;;;2.50;2.40;;;7.00;72.20;;;;;;4983904;28;20276;-70
2023/02/26 10:59:16;;;;;;;2.28;2.05;;;7.10;72.10;;;;;;4985901;28;20469;-70
2023/02/26 11:01:43;;;;;;;2.17;2.08;;;7.00;70.40;;;;;;4987089;28;20827;-69
2023/02/26 11:04:16;;;;;;;2.30;2.20;;;7.10;72.20;;;;;;4989364;28;20197;-69
2023/02/26 11:06:48;;;;;;;1.58;1.58;;;7.10;72.20;;;;;;4981513;28;20212;-69
2023/02/26 11:09:22;;;;;;;2.50;2.35;;;7.20;71.60;;;;;;4983537;28;20280;-69
2023/02/26 11:11:52;;;;;;;2.00;1.90;;;7.20;70.60;;;;;;4980088;28;20303;-70
2023/02/26 11:14:20;;;;;;;2.20;2.10;;;7.20;71.60;;;;;;4986636;28;20647;-70
2023/02/26 11:16:49;;;;;;;2.15;2.05;;;7.20;71.20;;;;;;4985301;28;20756;-70
2023/02/26 11:19:24;;;;;;;2.00;1.90;;;7.20;70.60;;;;;;4977566;28;20673;-70
2023/02/26 11:21:51;;;;;;;2.25;2.15;;;7.20;69.50;;;;;;4979645;28;20857;-68
2023/02/26 11:24:26;;;;;;;2.10;1.80;;;7.10;68.10;;;;;;4982343;28;20224;-69
2023/02/26 11:27:02;;;;;;;1.77;1.77;;;7.10;69.90;;;;;;4978185;28;20228;-69
2023/02/26 11:29:37;;;;;;;2.17;2.08;;;7.20;70.60;;;;;;4980462;28;20201;-69
2023/02/26 11:32:05;;;;;;;2.20;2.10;;;7.20;71.00;;;;;;4984310;28;20227;-69
2023/02/26 11:34:35;;;;;;;2.40;2.30;;;7.30;70.70;;;;;;4981599;28;20299;-69
2023/02/26 11:37:04;;;;;;;2.60;2.50;;;7.40;70.90;;;;;;4987668;28;20197;-69
2023/02/26 11:39:35;;;;;;;2.00;1.90;;;7.50;70.40;;;;;;4983046;28;20384;-68
2023/02/26 11:42:04;;;;;;;2.30;2.20;;;7.50;67.50;;;;;;4984482;28;20677;-68
2023/02/26 11:44:37;;;;;;;2.10;2.00;;;7.40;68.60;;;;;;4981145;28;20272;-69
2023/02/26 11:47:07;;;;;;;2.40;2.30;;;7.40;69.60;;;;;;4979496;28;20302;-69
2023/02/26 11:49:41;;;;;;;2.08;1.98;;;7.40;68.10;;;;;;4981970;28;20251;-69
2023/02/26 11:52:19;;;;;;;2.30;2.20;;;7.50;69.30;;;;;;4984970;28;20220;-68
2023/02/26 11:54:48;;;;;;;3.03;2.85;;;7.50;69.20;;;;;;4982554;28;20260;-68
2023/02/26 11:57:18;;;;;;;2.55;2.40;;;7.50;68.30;;;;;;4984055;28;20675;-69
2023/02/26 11:59:49;;;;;;;4.60;3.97;;;7.40;67.60;;;;;;4979911;28;20679;-69
2023/02/26 12:02:19;;;;;;;2.30;2.20;;;7.30;67.70;;;;;;4982993;28;20213;-69
2023/02/26 12:04:52;;;;;;;2.75;2.30;;;7.20;66.80;;;;;;4985870;28;20335;-69
2023/02/26 12:07:20;;;;;;;2.00;1.90;;;7.10;67.40;;;;;;4988259;28;20416;-68
2023/02/26 12:09:48;;;;;;;2.42;2.22;;;7.10;66.50;;;;;;4986655;28;20229;-69
2023/02/26 12:12:29;;;;;;;1.88;1.77;;;7.20;67.00;;;;;;4977884;28;20248;-68
2023/02/26 12:15:17;;;;;;;2.38;2.28;;;7.20;67.50;;;;;;4984381;28;20223;-68
2023/02/26 12:17:58;;;;;;;2.40;2.30;;;7.20;67.60;;;;;;4988542;28;20205;-69
2023/02/26 12:20:31;;;;;;;2.53;2.42;;;7.30;68.90;;;;;;4982206;28;20323;-69
2023/02/26 12:23:15;;;;;;;2.15;2.05;;;7.40;70.00;;;;;;4982705;28;20646;-69
2023/02/26 12:26:21;;;;;;;1.98;1.88;;;7.50;68.20;;;;;;4978962;28;20775;-70
2023/02/26 12:29:04;;;;;;;2.17;2.08;;;7.50;67.10;;;;;;4981866;28;20232;-69
2023/02/26 12:32:16;;;;;;;2.03;1.92;;;7.50;68.80;;;;;;4987803;28;20224;-69
2023/02/26 12:35:11;;;;;;;1.92;1.83;;;7.50;67.10;;;;;;4934915;28;21006;-69
2023/02/26 12:37:51;;;;;;;2.38;2.28;;;7.30;67.90;;;;;;4984361;28;20213;-69
2023/02/26 12:40:36;;;;;;;2.40;2.30;;;7.30;69.30;;;;;;4982830;28;20296;-69
2023/02/26 12:43:10;;;;;;;2.10;1.90;;;7.30;70.30;;;;;;4987150;28;20236;-71
2023/02/26 12:45:52;;;;;;;2.40;2.30;;;7.10;69.40;;;;;;4983479;28;20554;-69
2023/02/26 12:49:01;;;;;;;2.60;2.50;;;7.00;69.60;;;;;;4978838;28;20197;-69
2023/02/26 12:51:43;;;;;;;2.58;2.47;;;6.90;69.90;;;;;;4982670;28;20245;-69
2023/02/26 12:54:26;;;;;;;3.08;2.88;;;6.90;70.00;;;;;;4980198;28;20224;-68
2023/02/26 12:57:09;;;;;;;2.38;2.28;;;6.90;70.20;;;;;;4986557;28;20240;-68
2023/02/26 12:59:50;;;;;;;3.63;3.10;;;6.80;69.80;;;;;;4983974;28;20233;-71
2023/02/26 13:03:03;;;;;;;2.78;2.67;;;6.90;71.60;;;;;;4990318;28;20914;-70
2023/02/26 13:05:42;;;;;;;2.38;2.20;;;6.90;70.80;;;;;;4985557;28;20217;-69
2023/02/26 13:08:19;;;;;;;2.92;2.60;;;6.90;70.70;;;;;;4988587;28;20232;-69
2023/02/26 13:11:01;;;;;;;4.13;3.72;;;6.90;72.50;;;;;;4993452;28;20240;-69
2023/02/26 13:13:46;;;;;;;2.60;2.50;;;6.80;72.40;;;;;;4994390;28;20239;-69
2023/02/26 13:16:30;;;;;;;2.45;2.25;;;6.80;71.40;;;;;;4991662;28;20205;-69
2023/02/26 13:19:03;;;;;;;2.58;2.47;;;6.70;70.00;;;;;;4981117;28;20308;-69
2023/02/26 13:21:34;;;;;;;3.80;3.50;;;6.60;70.40;;;;;;4983170;28;20268;-69